Time;durP1;ratioP1;P1;durP2;ratioP2;P2;SDS_P1;SDS_P2;PMS_P1;PMS_P2;Temp;Humidity;BMP_temperature;BMP_pressure;BME280_temperature;BME280_humidity;BME280_pressure;Samples;Min_cycle;Max_cycle;Signal;HPM_P1;HPM_P2
2022/12/02 00:01:18;;;;;;;70.47;29.63;;;1.80;89.90;;;;;;5095481;28;20175;-91
2022/12/02 00:03:45;;;;;;;86.73;31.97;;;1.80;89.90;;;;;;5095823;28;20244;-91
2022/12/02 00:06:30;;;;;;;80.30;31.13;;;1.70;89.90;;;;;;5095349;28;20236;-90
2022/12/02 00:09:05;;;;;;;78.90;30.60;;;1.80;90.00;;;;;;5096646;28;20219;-91
2022/12/02 00:11:31;;;;;;;77.80;29.20;;;1.70;90.10;;;;;;5096602;28;20161;-91
2022/12/02 00:13:58;;;;;;;83.67;29.47;;;1.70;90.00;;;;;;5096465;28;20171;-90
2022/12/02 00:16:25;;;;;;;81.53;28.67;;;1.60;89.80;;;;;;5095283;28;20726;-91
2022/12/02 00:18:52;;;;;;;80.67;29.90;;;1.60;89.70;;;;;;5096487;28;20190;-91
2022/12/02 00:21:18;;;;;;;74.37;30.07;;;1.60;89.50;;;;;;5096689;28;20175;-91
2022/12/02 00:23:44;;;;;;;81.10;30.33;;;1.60;89.30;;;;;;5094891;28;20176;-90
2022/12/02 00:26:10;;;;;;;75.73;30.30;;;1.60;89.30;;;;;;5096123;28;20175;-89
2022/12/02 00:28:36;;;;;;;81.40;30.60;;;1.60;89.30;;;;;;5095979;28;20653;-90
2022/12/02 00:31:02;;;;;;;88.27;30.47;;;1.60;89.30;;;;;;5095010;28;20222;-91
2022/12/02 00:33:27;;;;;;;89.73;31.20;;;1.60;89.20;;;;;;5094876;28;20263;-91
2022/12/02 00:35:53;;;;;;;82.93;30.20;;;1.60;89.30;;;;;;5094901;28;20209;-91
2022/12/02 00:38:18;;;;;;;86.87;29.70;;;1.60;89.30;;;;;;5094866;28;20212;-90
2022/12/02 00:40:44;;;;;;;80.77;28.70;;;1.50;89.30;;;;;;5094706;28;20245;-90
2022/12/02 00:48:38;;;;;;;83.73;30.87;;;1.50;89.60;;;;;;5095983;28;20205;-91
2022/12/02 00:51:04;;;;;;;83.87;29.73;;;1.50;89.60;;;;;;5095779;28;20169;-91
2022/12/02 00:53:30;;;;;;;97.37;32.73;;;1.50;89.80;;;;;;5095949;28;20171;-91
2022/12/02 00:55:55;;;;;;;95.83;32.27;;;1.50;89.90;;;;;;5095562;28;20184;-91
2022/12/02 00:58:21;;;;;;;87.03;30.73;;;1.40;89.90;;;;;;5095145;28;20571;-91
2022/12/02 01:00:47;;;;;;;88.77;32.20;;;1.40;89.90;;;;;;5095887;28;20173;-91
2022/12/02 01:03:14;;;;;;;102.20;32.67;;;1.40;90.00;;;;;;5094129;28;20197;-91
2022/12/02 01:05:39;;;;;;;104.40;32.63;;;1.40;90.10;;;;;;5095640;28;20190;-91
2022/12/02 01:08:05;;;;;;;102.73;35.43;;;1.40;90.20;;;;;;5094034;28;20248;-90
2022/12/02 01:10:31;;;;;;;100.80;36.27;;;1.40;90.20;;;;;;5095547;28;20547;-90
2022/12/02 01:12:56;;;;;;;89.53;32.60;;;1.40;90.20;;;;;;5095233;28;20540;-90
2022/12/02 01:15:22;;;;;;;84.57;32.80;;;1.40;90.30;;;;;;5095515;28;20271;-90
2022/12/02 01:17:47;;;;;;;88.13;30.10;;;1.40;90.30;;;;;;5093659;28;20186;-90
2022/12/02 01:20:13;;;;;;;90.70;32.83;;;1.30;90.20;;;;;;5095275;28;20183;-91
2022/12/02 01:22:39;;;;;;;54.87;20.57;;;1.30;90.10;;;;;;5093902;28;20260;-91
2022/12/02 01:25:05;;;;;;;82.93;32.27;;;1.30;90.10;;;;;;5093658;28;20199;-89
2022/12/02 01:27:30;;;;;;;61.23;21.80;;;1.20;89.90;;;;;;5094937;28;20184;-89
2022/12/02 01:29:56;;;;;;;60.43;24.40;;;1.10;89.90;;;;;;5094834;28;20194;-90
2022/12/02 01:32:23;;;;;;;65.40;26.73;;;1.10;89.70;;;;;;5094785;28;20593;-89
2022/12/02 01:34:49;;;;;;;57.80;23.00;;;1.00;89.60;;;;;;5093539;28;20204;-89
2022/12/02 01:37:14;;;;;;;66.33;26.03;;;1.00;89.40;;;;;;5094777;28;20596;-89
2022/12/02 01:39:40;;;;;;;68.50;27.33;;;1.00;89.30;;;;;;5094932;28;20271;-91
2022/12/02 01:42:06;;;;;;;75.30;31.23;;;1.00;89.40;;;;;;5093430;28;20178;-90
2022/12/02 01:44:32;;;;;;;54.67;24.40;;;0.90;89.40;;;;;;5094525;28;20220;-90
2022/12/02 01:46:58;;;;;;;78.30;31.10;;;0.90;89.50;;;;;;5094589;28;20174;-89
2022/12/02 01:49:24;;;;;;;78.00;34.37;;;0.90;89.60;;;;;;5094690;28;20239;-91
2022/12/02 01:51:50;;;;;;;74.60;29.33;;;0.90;89.80;;;;;;5097231;28;20174;-92
2022/12/02 01:54:15;;;;;;;77.27;31.57;;;0.90;89.90;;;;;;5093391;28;20177;-91
2022/12/02 01:56:41;;;;;;;78.70;30.87;;;0.90;89.90;;;;;;5093521;28;20205;-91
2022/12/02 01:59:11;;;;;;;70.20;31.13;;;0.90;90.00;;;;;;5094997;28;20556;-91
2022/12/02 02:01:37;;;;;;;78.40;33.27;;;1.00;90.00;;;;;;5094833;28;20260;-90
2022/12/02 02:04:03;;;;;;;71.30;28.87;;;1.00;90.00;;;;;;5093441;28;20712;-89
2022/12/02 02:06:32;;;;;;;80.90;32.17;;;0.90;90.00;;;;;;5094155;28;20170;-90
2022/12/02 02:08:58;;;;;;;80.30;33.57;;;1.00;90.10;;;;;;5093418;28;20200;-90
2022/12/02 02:11:24;;;;;;;83.63;35.33;;;0.90;90.10;;;;;;5094305;28;20173;-89
2022/12/02 02:13:50;;;;;;;83.70;32.37;;;1.00;90.10;;;;;;5094040;28;20174;-90
2022/12/02 02:16:16;;;;;;;78.67;32.53;;;0.90;90.10;;;;;;5093963;28;20714;-89
2022/12/02 02:18:42;;;;;;;83.03;30.40;;;1.00;90.00;;;;;;5093869;28;20237;-89
2022/12/02 02:21:13;;;;;;;74.53;32.23;;;0.90;90.00;;;;;;5093895;28;20177;-90
2022/12/02 02:23:39;;;;;;;70.80;30.63;;;1.00;89.90;;;;;;5093879;28;20151;-90
2022/12/02 02:26:05;;;;;;;81.03;33.30;;;0.90;89.80;;;;;;5092441;28;20669;-90
2022/12/02 02:28:32;;;;;;;66.97;27.43;;;1.00;89.80;;;;;;5093685;28;20193;-90
2022/12/02 02:30:58;;;;;;;69.83;30.33;;;1.00;89.70;;;;;;5092616;28;20185;-89
2022/12/02 02:33:26;;;;;;;82.20;32.50;;;1.00;89.50;;;;;;5093695;28;20184;-90
2022/12/02 02:35:52;;;;;;;75.13;31.20;;;1.00;89.50;;;;;;5092406;28;20631;-90
2022/12/02 02:38:21;;;;;;;75.70;33.90;;;1.00;89.60;;;;;;5093589;28;20194;-89
2022/12/02 02:40:48;;;;;;;75.67;31.80;;;1.00;89.50;;;;;;5093586;28;20184;-90
2022/12/02 02:43:15;;;;;;;75.80;32.17;;;1.00;89.50;;;;;;5093610;28;20201;-89
2022/12/02 02:45:42;;;;;;;74.33;32.13;;;1.00;89.60;;;;;;5093434;28;20290;-90
2022/12/02 02:48:10;;;;;;;78.80;34.83;;;1.00;89.50;;;;;;5093555;28;20205;-90
2022/12/02 02:50:38;;;;;;;92.47;38.50;;;1.00;89.50;;;;;;5093476;28;20284;-90
2022/12/02 02:53:05;;;;;;;85.83;37.00;;;1.00;89.60;;;;;;5093605;28;20201;-90
2022/12/02 02:55:31;;;;;;;81.17;38.23;;;1.00;89.70;;;;;;5092218;28;20170;-90
2022/12/02 02:58:13;;;;;;;86.20;38.13;;;1.00;89.90;;;;;;5093447;28;20520;-89
2022/12/02 03:00:44;;;;;;;104.23;40.10;;;1.10;90.10;;;;;;5093273;28;20176;-90
2022/12/02 03:03:12;;;;;;;90.57;36.97;;;1.00;90.30;;;;;;5093493;28;20154;-89
2022/12/02 03:05:39;;;;;;;88.40;39.33;;;1.00;90.40;;;;;;5093227;28;20193;-89
2022/12/02 03:08:05;;;;;;;101.40;40.03;;;1.00;90.50;;;;;;5093230;28;20240;-90
2022/12/02 03:10:31;;;;;;;93.40;40.23;;;1.00;90.60;;;;;;5093279;28;20172;-90
2022/12/02 03:12:57;;;;;;;99.70;37.90;;;0.90;90.70;;;;;;5093216;28;20486;-90
2022/12/02 03:15:26;;;;;;;85.63;36.13;;;1.00;90.90;;;;;;5093146;28;20178;-90
2022/12/02 03:17:52;;;;;;;97.70;38.97;;;0.90;91.00;;;;;;5093340;28;20222;-89
2022/12/02 03:20:18;;;;;;;90.33;39.50;;;0.90;91.10;;;;;;5093750;28;20177;-90
2022/12/02 03:22:44;;;;;;;96.10;39.77;;;0.80;91.30;;;;;;5097287;28;20178;-90
2022/12/02 03:25:10;;;;;;;99.87;40.60;;;0.80;91.40;;;;;;5097250;28;20201;-90
2022/12/02 03:27:36;;;;;;;90.77;37.60;;;0.80;91.60;;;;;;5095955;28;20170;-90
2022/12/02 03:30:02;;;;;;;98.10;41.03;;;0.80;91.80;;;;;;5097191;28;20203;-90
2022/12/02 03:32:28;;;;;;;96.30;39.07;;;0.80;92.00;;;;;;5095942;28;20169;-90
2022/12/02 03:34:54;;;;;;;84.03;33.87;;;0.80;92.10;;;;;;5097056;28;20226;-90
2022/12/02 03:37:21;;;;;;;103.17;42.70;;;0.70;92.30;;;;;;5095977;28;20273;-90
2022/12/02 03:39:47;;;;;;;89.27;38.00;;;0.70;92.40;;;;;;5097224;28;20292;-90
2022/12/02 03:42:13;;;;;;;112.03;44.33;;;0.70;92.60;;;;;;5096939;28;20254;-90
2022/12/02 03:44:39;;;;;;;101.93;42.37;;;0.60;92.70;;;;;;5096798;28;20204;-89
2022/12/02 03:47:04;;;;;;;97.43;38.00;;;0.60;92.80;;;;;;5097005;28;20661;-90
2022/12/02 03:49:32;;;;;;;99.80;42.37;;;0.60;93.00;;;;;;5096985;28;20213;-89
2022/12/02 03:51:58;;;;;;;92.73;40.80;;;0.60;93.10;;;;;;5095570;28;20600;-90
2022/12/02 03:54:24;;;;;;;88.50;38.63;;;0.60;93.20;;;;;;5096782;28;20214;-90
2022/12/02 03:56:49;;;;;;;102.67;42.33;;;0.60;93.30;;;;;;5097583;28;20232;-90
2022/12/02 03:59:23;;;;;;;99.40;40.97;;;0.60;93.40;;;;;;5096642;28;20201;-90
2022/12/02 04:01:48;;;;;;;97.63;41.40;;;0.60;93.50;;;;;;5096720;28;20623;-91
2022/12/02 04:04:14;;;;;;;105.57;41.70;;;0.60;93.50;;;;;;5095238;28;20229;-90
2022/12/02 04:06:40;;;;;;;92.50;38.73;;;0.50;93.60;;;;;;5096470;28;20178;-90
2022/12/02 04:09:05;;;;;;;98.20;40.93;;;0.50;93.60;;;;;;5096480;28;20387;-90
2022/12/02 04:11:31;;;;;;;105.27;41.17;;;0.50;93.70;;;;;;5096392;28;20531;-90
2022/12/02 04:13:56;;;;;;;92.30;36.23;;;0.50;93.80;;;;;;5096424;28;20225;-91
2022/12/02 04:16:22;;;;;;;106.70;41.13;;;0.50;93.80;;;;;;5096319;28;20256;-90
2022/12/02 04:18:47;;;;;;;101.00;41.40;;;0.50;93.80;;;;;;5096177;28;20196;-90
2022/12/02 04:21:13;;;;;;;110.13;43.93;;;0.50;93.90;;;;;;5094937;28;20640;-91
2022/12/02 04:23:39;;;;;;;100.63;40.87;;;0.50;93.90;;;;;;5096441;28;20204;-90
2022/12/02 04:26:04;;;;;;;97.33;37.80;;;0.50;94.00;;;;;;5094927;28;20296;-90
2022/12/02 04:28:30;;;;;;;107.93;42.47;;;0.50;94.00;;;;;;5096121;28;20554;-90
2022/12/02 04:30:56;;;;;;;101.83;40.90;;;0.50;94.00;;;;;;5096387;28;20172;-91
2022/12/02 04:33:21;;;;;;;111.43;44.40;;;0.50;94.00;;;;;;5095314;28;20217;-90
2022/12/02 04:35:47;;;;;;;96.30;40.33;;;0.50;94.10;;;;;;5095938;28;20180;-90
2022/12/02 04:38:12;;;;;;;106.10;41.03;;;0.50;94.10;;;;;;5096035;28;20671;-91
2022/12/02 04:40:38;;;;;;;107.90;41.20;;;0.50;94.20;;;;;;5094715;28;20199;-90
2022/12/02 04:43:04;;;;;;;109.57;45.00;;;0.40;94.20;;;;;;5096185;28;20208;-91
2022/12/02 04:45:29;;;;;;;119.47;46.17;;;0.50;94.20;;;;;;5095673;28;20602;-91
2022/12/02 04:47:55;;;;;;;99.17;41.20;;;0.50;94.30;;;;;;5095927;28;20197;-91
2022/12/02 04:50:20;;;;;;;98.20;41.43;;;0.50;94.30;;;;;;5094410;28;20193;-91
2022/12/02 04:52:46;;;;;;;117.27;45.30;;;0.50;94.30;;;;;;5096210;28;20237;-90
2022/12/02 04:55:11;;;;;;;104.20;40.87;;;0.40;94.30;;;;;;5095560;28;20177;-90
2022/12/02 04:57:37;;;;;;;104.20;42.53;;;0.40;94.40;;;;;;5095644;28;20181;-90
2022/12/02 05:00:04;;;;;;;101.30;41.60;;;0.50;94.40;;;;;;5095416;28;20219;-90
2022/12/02 05:02:30;;;;;;;103.70;40.73;;;0.50;94.50;;;;;;5102115;22;20309;-89
2022/12/02 05:04:55;;;;;;;113.43;44.03;;;0.50;94.50;;;;;;5075420;28;20766;-89
2022/12/02 05:07:21;;;;;;;111.63;42.40;;;0.40;94.50;;;;;;5074329;28;20200;-89
2022/12/02 05:09:47;;;;;;;101.30;41.13;;;0.50;94.50;;;;;;5075462;28;20181;-90
2022/12/02 05:12:12;;;;;;;113.03;43.80;;;0.50;94.60;;;;;;5074032;28;20690;-90
2022/12/02 05:14:37;;;;;;;112.97;44.40;;;0.50;94.60;;;;;;5074233;28;20188;-89
2022/12/02 05:17:03;;;;;;;104.00;40.30;;;0.40;94.60;;;;;;5074251;28;20192;-90
2022/12/02 05:19:28;;;;;;;112.10;43.70;;;0.50;94.60;;;;;;5074296;28;20207;-90
2022/12/02 05:21:54;;;;;;;104.67;41.83;;;0.50;94.60;;;;;;5074055;28;20233;-90
2022/12/02 05:24:19;;;;;;;102.83;40.27;;;0.50;94.70;;;;;;5074024;28;20240;-89
2022/12/02 05:26:45;;;;;;;106.93;42.37;;;0.50;94.70;;;;;;5074046;28;20173;-90
2022/12/02 05:29:10;;;;;;;105.13;41.50;;;0.50;94.70;;;;;;5075247;28;20553;-90
2022/12/02 05:31:36;;;;;;;96.13;38.63;;;0.50;94.70;;;;;;5073891;28;20206;-89
2022/12/02 05:34:02;;;;;;;92.50;42.47;;;0.40;94.70;;;;;;5073835;28;20189;-89
2022/12/02 05:36:27;;;;;;;91.17;36.50;;;0.50;94.70;;;;;;5073787;28;20210;-89
2022/12/02 05:38:53;;;;;;;107.77;43.27;;;0.50;94.80;;;;;;5073766;28;20205;-89
2022/12/02 05:41:18;;;;;;;99.33;40.23;;;0.50;94.80;;;;;;5073762;28;20196;-89
2022/12/02 05:43:44;;;;;;;95.27;39.03;;;0.50;94.80;;;;;;5072941;28;20175;-89
2022/12/02 05:46:18;;;;;;;106.17;42.10;;;0.50;94.90;;;;;;5074773;28;20191;-89
2022/12/02 05:48:45;;;;;;;104.90;42.00;;;0.50;94.90;;;;;;5073531;28;20165;-89
2022/12/02 05:51:13;;;;;;;100.03;40.13;;;0.50;94.90;;;;;;5073290;28;20679;-89
2022/12/02 05:53:40;;;;;;;96.57;39.97;;;0.50;94.90;;;;;;5074891;28;20165;-89
2022/12/02 05:56:17;;;;;;;103.87;42.87;;;0.50;94.90;;;;;;5074364;28;20567;-90
2022/12/02 05:58:43;;;;;;;107.13;44.83;;;0.50;95.00;;;;;;5073379;28;20179;-89
2022/12/02 06:01:19;;;;;;;109.60;42.27;;;0.50;94.90;;;;;;5073622;28;20219;-90
2022/12/02 06:03:45;;;;;;;102.40;40.80;;;0.50;95.00;;;;;;5073360;28;20185;-90
2022/12/02 06:06:11;;;;;;;88.53;36.70;;;0.50;95.00;;;;;;5073184;28;20178;-89
2022/12/02 06:08:37;;;;;;;102.90;43.17;;;0.50;95.00;;;;;;5073295;28;20660;-89
2022/12/02 06:11:15;;;;;;;105.27;45.23;;;0.60;95.00;;;;;;5074182;28;20281;-89
2022/12/02 06:13:42;;;;;;;93.10;37.67;;;0.50;95.00;;;;;;5073391;28;20671;-90
2022/12/02 06:16:16;;;;;;;108.03;44.10;;;0.50;95.00;;;;;;5072901;28;20200;-90
2022/12/02 06:18:42;;;;;;;105.07;39.97;;;0.60;95.00;;;;;;5073080;28;20165;-89
2022/12/02 06:21:14;;;;;;;101.13;39.33;;;0.50;95.00;;;;;;5074087;28;20678;-90
2022/12/02 06:23:44;;;;;;;96.10;40.57;;;0.50;95.00;;;;;;5074294;28;20200;-89
2022/12/02 06:26:13;;;;;;;97.50;42.23;;;0.50;95.00;;;;;;5073103;28;20174;-88
2022/12/02 06:28:40;;;;;;;102.80;42.03;;;0.50;95.00;;;;;;5072638;28;20579;-90
2022/12/02 06:31:30;;;;;;;115.07;47.57;;;0.50;95.00;;;;;;5072548;28;20199;-89
2022/12/02 06:33:58;;;;;;;86.77;37.10;;;0.60;95.10;;;;;;5072595;28;20642;-89
2022/12/02 06:36:30;;;;;;;100.50;40.87;;;0.60;95.10;;;;;;5072840;28;20177;-90
2022/12/02 06:39:02;;;;;;;104.47;45.00;;;0.60;95.10;;;;;;5072539;28;20181;-89
2022/12/02 06:41:31;;;;;;;99.50;42.07;;;0.60;95.10;;;;;;5072492;28;20691;-90
2022/12/02 06:47:35;;;;;;;106.37;44.33;;;0.50;95.10;;;;;;5074289;28;20161;-89
2022/12/02 06:50:03;;;;;;;86.90;34.03;;;0.60;95.10;;;;;;5072233;28;20175;-90
2022/12/02 06:52:34;;;;;;;89.10;36.63;;;0.60;95.10;;;;;;5073506;28;20672;-90
2022/12/02 06:55:00;;;;;;;99.80;40.57;;;0.50;95.10;;;;;;5072796;28;20192;-90
2022/12/02 06:57:30;;;;;;;94.10;39.47;;;0.60;95.10;;;;;;5072338;28;20291;-89
2022/12/02 06:59:56;;;;;;;108.27;42.10;;;0.60;95.10;;;;;;5072181;28;20647;-89
2022/12/02 07:02:29;;;;;;;102.63;41.20;;;0.60;95.10;;;;;;5072051;28;20268;-89
2022/12/02 07:04:57;;;;;;;109.73;45.43;;;0.60;95.10;;;;;;5072706;28;20199;-89
2022/12/02 07:07:29;;;;;;;110.57;44.87;;;0.60;95.10;;;;;;5072329;28;20299;-89
2022/12/02 07:10:12;;;;;;;112.27;44.43;;;0.60;95.00;;;;;;5072055;28;20186;-90
2022/12/02 07:12:44;;;;;;;114.97;45.73;;;0.60;95.00;;;;;;5072152;28;20201;-89
2022/12/02 07:15:26;;;;;;;105.27;42.33;;;0.60;95.10;;;;;;5073290;28;20194;-90
2022/12/02 07:17:55;;;;;;;105.30;43.43;;;0.60;95.10;;;;;;5071945;28;20179;-89
2022/12/02 07:20:33;;;;;;;119.60;44.93;;;0.60;95.00;;;;;;5073186;28;20261;-89
2022/12/02 07:23:21;;;;;;;95.87;42.40;;;0.60;95.00;;;;;;5072101;28;20332;-89
2022/12/02 07:25:49;;;;;;;97.87;42.13;;;0.60;95.00;;;;;;5073232;28;20229;-89
2022/12/02 07:28:24;;;;;;;103.53;43.73;;;0.60;95.00;;;;;;5073289;28;20182;-89
2022/12/02 07:30:59;;;;;;;102.30;44.33;;;0.60;95.00;;;;;;5071882;28;20172;-89
2022/12/02 07:33:24;;;;;;;112.37;45.83;;;0.60;95.00;;;;;;5071910;28;20237;-90
2022/12/02 07:35:50;;;;;;;101.83;41.53;;;0.70;95.00;;;;;;5071844;28;20223;-89
2022/12/02 07:38:16;;;;;;;104.70;42.93;;;0.60;95.00;;;;;;5072173;28;20189;-90
2022/12/02 07:40:42;;;;;;;102.90;41.93;;;0.70;95.00;;;;;;5072624;28;20236;-90
2022/12/02 07:43:08;;;;;;;99.00;40.40;;;0.70;95.00;;;;;;5072383;28;20193;-90
2022/12/02 07:45:33;;;;;;;100.73;43.13;;;0.70;95.00;;;;;;5071893;28;20554;-90
2022/12/02 07:47:59;;;;;;;107.80;43.70;;;0.70;94.90;;;;;;5071850;28;20186;-89
2022/12/02 07:50:25;;;;;;;102.03;43.50;;;0.80;94.90;;;;;;5072553;28;20233;-89
2022/12/02 07:52:51;;;;;;;106.97;43.90;;;0.70;94.90;;;;;;5073001;28;20216;-87
2022/12/02 07:55:16;;;;;;;108.53;45.27;;;0.80;94.90;;;;;;5072117;28;20222;-90
2022/12/02 07:57:42;;;;;;;101.87;42.80;;;0.80;94.90;;;;;;5071868;28;20185;-89
2022/12/02 08:00:09;;;;;;;99.37;42.43;;;0.80;94.90;;;;;;5072662;28;20183;-89
2022/12/02 08:02:34;;;;;;;108.50;43.50;;;0.80;94.80;;;;;;5071830;28;20760;-89
2022/12/02 08:05:00;;;;;;;97.77;38.00;;;0.80;94.80;;;;;;5071802;28;20207;-89
2022/12/02 08:07:25;;;;;;;95.40;39.90;;;0.80;94.80;;;;;;5072997;28;20186;-89
2022/12/02 08:09:51;;;;;;;92.67;37.40;;;0.80;94.80;;;;;;5076547;28;20268;-90
2022/12/02 08:12:16;;;;;;;93.73;39.77;;;0.80;94.80;;;;;;5076603;28;20609;-89
2022/12/02 08:14:42;;;;;;;90.90;39.27;;;0.80;94.80;;;;;;5075282;28;20213;-89
2022/12/02 08:17:07;;;;;;;88.27;37.37;;;0.80;94.70;;;;;;5075240;28;20174;-89
2022/12/02 08:19:33;;;;;;;78.47;34.67;;;0.80;94.70;;;;;;5075223;28;20207;-89
2022/12/02 08:21:58;;;;;;;79.20;33.43;;;0.80;94.70;;;;;;5074969;28;20201;-89
2022/12/02 08:24:24;;;;;;;73.13;34.03;;;0.90;94.70;;;;;;5075957;28;20222;-89
2022/12/02 08:26:49;;;;;;;84.27;33.57;;;0.90;94.70;;;;;;5075079;28;20203;-89
2022/12/02 08:29:15;;;;;;;74.90;32.10;;;0.90;94.70;;;;;;5075355;28;20239;-90
2022/12/02 08:31:40;;;;;;;77.87;30.83;;;0.80;94.70;;;;;;5074736;28;20206;-89
2022/12/02 08:34:06;;;;;;;65.57;30.47;;;0.90;94.70;;;;;;5075108;28;20266;-89
2022/12/02 08:36:33;;;;;;;69.40;32.97;;;0.90;94.60;;;;;;5074866;28;20183;-89
2022/12/02 08:39:01;;;;;;;61.13;27.50;;;0.90;94.60;;;;;;5075058;28;20178;-89
2022/12/02 08:41:27;;;;;;;77.03;29.83;;;0.90;94.60;;;;;;5074779;28;20618;-90
2022/12/02 08:43:52;;;;;;;68.13;31.07;;;0.90;94.60;;;;;;5074742;28;20270;-89
2022/12/02 08:46:18;;;;;;;76.00;30.40;;;1.00;94.50;;;;;;5074761;28;20214;-89
2022/12/02 08:48:43;;;;;;;72.33;32.63;;;1.00;94.50;;;;;;5074768;28;20639;-90
2022/12/02 08:51:09;;;;;;;76.30;33.67;;;0.90;94.50;;;;;;5075943;28;20204;-89
2022/12/02 08:53:35;;;;;;;75.73;32.90;;;1.00;94.50;;;;;;5074716;28;20190;-90
2022/12/02 08:56:00;;;;;;;80.73;36.20;;;1.00;94.40;;;;;;5074458;28;20798;-89
2022/12/02 08:58:26;;;;;;;79.63;31.70;;;1.10;94.50;;;;;;5074810;28;20216;-90
2022/12/02 09:00:51;;;;;;;72.53;33.57;;;1.20;94.50;;;;;;5074291;28;20185;-89
2022/12/02 09:03:17;;;;;;;88.10;35.70;;;1.20;94.40;;;;;;5074359;28;20171;-90
2022/12/02 09:05:43;;;;;;;84.87;37.20;;;1.20;94.40;;;;;;5074294;28;20220;-90
2022/12/02 09:08:08;;;;;;;84.57;37.47;;;1.20;94.40;;;;;;5074756;28;20264;-89
2022/12/02 09:10:34;;;;;;;85.83;35.63;;;1.30;94.40;;;;;;5074239;28;20248;-90
2022/12/02 09:13:00;;;;;;;92.30;38.30;;;1.30;94.30;;;;;;5074223;28;20550;-89
2022/12/02 09:15:25;;;;;;;87.43;38.43;;;1.30;94.30;;;;;;5075001;28;20203;-90
2022/12/02 09:17:51;;;;;;;76.97;33.73;;;1.30;94.30;;;;;;5074029;28;20179;-92
2022/12/02 09:20:17;;;;;;;82.03;35.50;;;1.30;94.20;;;;;;5074587;28;20179;-89
2022/12/02 09:22:44;;;;;;;75.97;34.13;;;1.30;94.20;;;;;;5074012;28;20195;-91
2022/12/02 09:25:10;;;;;;;77.73;35.90;;;1.30;94.20;;;;;;5074261;28;20180;-91
2022/12/02 09:27:35;;;;;;;81.50;36.40;;;1.30;94.20;;;;;;5074688;28;20280;-90
2022/12/02 09:30:01;;;;;;;82.23;34.37;;;1.30;94.20;;;;;;5075964;28;20179;-90
2022/12/02 09:32:27;;;;;;;78.90;35.27;;;1.40;94.10;;;;;;5075047;28;20549;-90
2022/12/02 09:34:52;;;;;;;77.10;35.20;;;1.40;94.10;;;;;;5075586;28;20242;-89
2022/12/02 09:37:18;;;;;;;63.80;30.20;;;1.40;94.10;;;;;;5073733;28;20181;-90
2022/12/02 09:39:43;;;;;;;79.00;36.30;;;1.40;94.10;;;;;;5074054;28;20176;-89
2022/12/02 09:42:10;;;;;;;71.80;31.13;;;1.40;94.00;;;;;;5073937;28;20213;-90
2022/12/02 09:44:37;;;;;;;64.10;29.60;;;1.40;94.00;;;;;;5073989;28;20179;-90
2022/12/02 09:47:03;;;;;;;67.53;30.13;;;1.40;94.00;;;;;;5073835;28;20183;-90
2022/12/02 09:49:30;;;;;;;73.00;34.20;;;1.30;93.90;;;;;;5074940;28;20206;-89
2022/12/02 09:52:00;;;;;;;77.50;33.30;;;1.40;93.90;;;;;;5073700;28;20207;-89
2022/12/02 09:54:25;;;;;;;76.10;36.40;;;1.50;93.90;;;;;;5073549;28;20664;-90
2022/12/02 09:56:51;;;;;;;75.07;33.20;;;1.50;93.90;;;;;;5075186;28;20223;-89
2022/12/02 09:59:17;;;;;;;76.67;34.70;;;1.50;93.80;;;;;;5073112;28;20243;-88
2022/12/02 10:01:45;;;;;;;81.60;36.23;;;1.40;93.80;;;;;;5072892;28;20654;-89
2022/12/02 10:04:14;;;;;;;76.87;35.13;;;1.50;93.80;;;;;;5074772;28;20542;-91
2022/12/02 10:06:40;;;;;;;80.13;35.87;;;1.40;93.70;;;;;;5073687;28;20546;-87
2022/12/02 10:09:12;;;;;;;82.53;38.27;;;1.50;93.80;;;;;;5073673;28;20178;-91
2022/12/02 10:11:38;;;;;;;80.53;37.73;;;1.60;93.70;;;;;;5073817;28;20236;-90
2022/12/02 10:14:05;;;;;;;81.47;37.87;;;1.60;93.70;;;;;;5073871;28;20175;-90
2022/12/02 10:16:33;;;;;;;80.60;34.43;;;1.60;93.60;;;;;;5073661;28;20186;-91
2022/12/02 10:19:02;;;;;;;77.80;35.17;;;1.60;93.50;;;;;;5073259;28;20270;-91
2022/12/02 10:21:28;;;;;;;75.87;36.40;;;1.60;93.50;;;;;;5073299;28;20214;-90
2022/12/02 10:23:59;;;;;;;79.17;35.10;;;1.70;93.50;;;;;;5073201;28;20179;-91
2022/12/02 10:26:26;;;;;;;72.93;37.10;;;1.70;93.40;;;;;;5073749;28;20233;-91
2022/12/02 10:29:05;;;;;;;79.43;34.53;;;1.70;93.30;;;;;;5073058;28;20186;-89
2022/12/02 10:31:31;;;;;;;66.10;32.33;;;1.80;93.20;;;;;;5072663;28;20202;-92
2022/12/02 10:33:59;;;;;;;76.80;36.53;;;1.70;93.10;;;;;;5074135;28;20179;-92
2022/12/02 10:36:39;;;;;;;60.43;30.90;;;1.70;93.00;;;;;;5075132;28;20223;-91
2022/12/02 10:39:21;;;;;;;51.67;25.03;;;1.70;92.90;;;;;;5073677;28;20609;-91
2022/12/02 10:42:15;;;;;;;71.70;34.77;;;1.70;92.80;;;;;;5073555;28;20199;-90
2022/12/02 10:44:44;;;;;;;82.87;35.53;;;1.70;92.80;;;;;;5074333;28;20193;-90
2022/12/02 10:47:22;;;;;;;62.37;30.83;;;1.70;92.80;;;;;;5072646;28;20179;-89
2022/12/02 10:49:52;;;;;;;77.87;38.87;;;1.70;92.80;;;;;;5073749;28;20199;-89
2022/12/02 10:52:22;;;;;;;83.50;35.33;;;1.80;92.80;;;;;;5072662;28;20199;-90
2022/12/02 10:54:50;;;;;;;62.83;31.33;;;1.70;92.80;;;;;;5072862;28;20254;-90
2022/12/02 10:57:27;;;;;;;76.90;33.03;;;1.80;92.70;;;;;;5072164;28;20179;-89
2022/12/02 10:59:54;;;;;;;83.10;39.03;;;1.70;92.70;;;;;;5072294;28;20171;-89
2022/12/02 12:04:37;;;;;;;78.07;36.40;;;1.90;92.20;;;;;;5038511;28;20212;-92
2022/12/02 12:07:03;;;;;;;74.10;38.10;;;2.00;92.20;;;;;;5046236;28;20191;-92
2022/12/02 12:09:29;;;;;;;73.97;35.60;;;2.00;92.20;;;;;;5038755;28;20237;-92
2022/12/02 12:12:17;;;;;;;74.20;36.57;;;2.00;92.20;;;;;;5038266;28;20666;-93
2022/12/02 12:15:06;;;;;;;83.33;38.97;;;2.00;92.00;;;;;;5042233;28;20219;-92
2022/12/02 12:17:38;;;;;;;76.50;38.53;;;2.00;91.90;;;;;;5035086;28;20243;-93
2022/12/02 12:30:25;;;;;;;66.23;33.70;;;2.00;91.80;;;;;;5055404;22;20244;-93
2022/12/02 12:32:54;;;;;;;78.17;35.90;;;2.00;91.70;;;;;;5049762;28;20235;-94
2022/12/02 12:38:06;;;;;;;81.07;37.43;;;2.00;91.70;;;;;;5045870;28;20253;-94
2022/12/02 12:40:34;;;;;;;76.53;37.50;;;2.00;91.70;;;;;;5047905;28;20296;-93
2022/12/02 12:43:09;;;;;;;74.37;35.90;;;2.00;91.80;;;;;;5048149;28;20203;-93
2022/12/02 12:45:53;;;;;;;;;;;;;;;;;;;;;
2022/12/02 12:48:22;;;;;;;69.90;34.73;;;2.00;91.70;;;;;;5047820;28;20267;-93
2022/12/02 12:51:11;;;;;;;76.83;35.10;;;2.00;91.60;;;;;;5045012;28;20224;-94
2022/12/02 12:53:53;;;;;;;70.83;30.30;;;2.00;91.60;;;;;;5044222;28;20188;-93
2022/12/02 12:56:30;;;;;;;72.07;33.27;;;1.90;91.40;;;;;;5045718;28;20239;-94
2022/12/02 12:59:05;;;;;;;71.93;35.10;;;2.00;91.40;;;;;;5045125;28;20172;-93
2022/12/02 13:01:36;;;;;;;73.10;34.80;;;2.00;91.50;;;;;;5044582;28;20249;-93
2022/12/02 13:04:18;;;;;;;73.17;37.90;;;2.00;91.60;;;;;;5039715;28;20195;-93
2022/12/02 13:06:53;;;;;;;71.87;37.23;;;2.00;91.60;;;;;;5039463;28;20783;-94
2022/12/02 13:09:35;;;;;;;76.67;37.73;;;2.00;91.60;;;;;;5043074;28;20199;-94
2022/12/02 13:12:25;;;;;;;69.77;35.73;;;2.00;91.60;;;;;;5045126;28;20255;-94
2022/12/02 13:14:57;;;;;;;73.20;35.27;;;2.10;91.60;;;;;;5045753;28;20290;-93
2022/12/02 13:17:41;;;;;;;75.47;36.93;;;2.00;91.50;;;;;;5047988;28;20179;-94
2022/12/02 13:20:28;;;;;;;67.43;35.10;;;2.00;91.30;;;;;;5045625;28;20173;-94
2022/12/02 13:22:53;;;;;;;58.93;27.87;;;2.00;91.10;;;;;;5049853;28;20203;-94
2022/12/02 13:25:42;;;;;;;66.53;32.27;;;2.00;90.80;;;;;;5048722;28;20180;-94
2022/12/02 13:28:20;;;;;;;66.50;34.57;;;2.00;90.60;;;;;;5044237;28;20187;-93
2022/12/02 13:30:50;;;;;;;61.70;35.07;;;2.00;90.50;;;;;;5040909;28;20192;-94
2022/12/02 13:33:16;;;;;;;64.37;33.53;;;2.10;90.50;;;;;;5039892;28;20689;-93
2022/12/02 13:35:48;;;;;;;61.77;33.90;;;2.00;90.40;;;;;;5048865;28;20209;-94
2022/12/02 13:38:31;;;;;;;58.73;31.87;;;2.10;90.40;;;;;;5046107;28;20188;-93
2022/12/02 13:41:24;;;;;;;65.23;32.27;;;2.10;90.20;;;;;;5051230;28;20173;-93
2022/12/02 13:44:21;;;;;;;65.00;32.67;;;2.10;90.00;;;;;;5044925;28;20185;-94
2022/12/02 13:46:58;;;;;;;53.60;28.50;;;2.10;90.00;;;;;;5044314;28;20242;-93
2022/12/02 13:52:51;;;;;;;49.37;26.30;;;2.10;89.60;;;;;;5017905;28;20201;-93
2022/12/02 13:55:17;;;;;;;54.27;27.20;;;2.10;89.30;;;;;;5038239;28;20291;-92
2022/12/02 13:57:42;;;;;;;57.53;29.17;;;2.00;89.00;;;;;;5033366;28;20593;-91
2022/12/02 14:05:22;;;;;;;38.63;23.17;;;2.10;88.50;;;;;;5218188;22;20235;-93
2022/12/02 14:08:17;;;;;;;42.63;22.13;;;2.10;88.40;;;;;;5055766;28;20189;-92
2022/12/02 14:13:40;;;;;;;37.67;18.90;;;2.10;88.30;;;;;;5044266;28;20556;-93
2022/12/02 14:16:25;;;;;;;53.60;25.47;;;2.10;88.30;;;;;;5055425;28;20215;-93
2022/12/02 14:19:16;;;;;;;;;;;;;;;;;;;;;